Time;durP1;ratioP1;P1;durP2;ratioP2;P2;SDS_P1;SDS_P2;PMS_P1;PMS_P2;Temp;Humidity;BMP_temperature;BMP_pressure;BME280_temperature;BME280_humidity;BME280_pressure;Samples;Min_cycle;Max_cycle;Signal;HPM_P1;HPM_P2
2023/07/06 00:01:00;;;;;;;237.80;227.57;;;11.30;99.90;;;;;;5029337;28;20045;-67
2023/07/06 00:03:26;;;;;;;242.80;232.80;;;11.30;99.90;;;;;;5024616;28;20041;-67
2023/07/06 00:05:52;;;;;;;245.00;234.75;;;11.30;99.90;;;;;;5046543;28;20049;-67
2023/07/06 00:08:18;;;;;;;239.73;229.70;;;11.20;99.90;;;;;;5026540;28;20049;-67
2023/07/06 00:10:46;;;;;;;251.57;240.73;;;11.20;99.90;;;;;;5026706;28;20057;-67
2023/07/06 00:13:12;;;;;;;245.25;234.50;;;11.20;99.90;;;;;;5029430;28;20413;-67
2023/07/06 00:15:42;;;;;;;249.25;238.52;;;11.20;99.90;;;;;;5027921;28;20932;-67
2023/07/06 00:18:10;;;;;;;244.00;233.60;;;11.20;99.90;;;;;;5028718;28;20099;-67
2023/07/06 00:20:39;;;;;;;245.85;235.40;;;11.20;99.90;;;;;;5029370;28;20409;-67
2023/07/06 00:23:06;;;;;;;249.40;238.75;;;11.20;99.90;;;;;;5024018;28;20037;-66
2023/07/06 00:25:36;;;;;;;282.58;270.60;;;11.20;99.90;;;;;;5028342;28;20110;-67
2023/07/06 00:28:03;;;;;;;260.05;249.15;;;11.20;99.90;;;;;;5034621;28;20052;-67
2023/07/06 00:30:53;;;;;;;262.20;251.00;;;11.20;99.90;;;;;;5031379;28;20060;-67
2023/07/06 00:33:21;;;;;;;249.48;239.05;;;11.20;99.90;;;;;;5030077;28;20052;-67
2023/07/06 00:35:47;;;;;;;253.07;242.23;;;11.10;99.90;;;;;;5019100;28;20056;-67
2023/07/06 00:38:19;;;;;;;243.77;233.65;;;11.10;99.90;;;;;;5044257;28;20053;-67
2023/07/06 00:40:46;;;;;;;244.77;234.45;;;11.10;99.90;;;;;;5028944;28;20555;-67
2023/07/06 00:43:15;;;;;;;233.90;223.38;;;11.10;99.90;;;;;;5026917;28;20077;-66
2023/07/06 00:45:45;;;;;;;237.60;227.52;;;11.10;99.90;;;;;;5012291;28;20052;-67
2023/07/06 00:48:22;;;;;;;232.07;222.45;;;11.10;99.90;;;;;;5027370;28;20448;-67
2023/07/06 00:50:56;;;;;;;227.18;217.45;;;11.10;99.90;;;;;;5042787;28;20051;-67
2023/07/06 00:53:26;;;;;;;227.50;217.68;;;11.10;99.90;;;;;;5025185;28;20542;-67
2023/07/06 00:55:57;;;;;;;210.68;201.50;;;11.10;99.90;;;;;;5029410;28;20524;-67
2023/07/06 00:58:28;;;;;;;228.50;218.65;;;11.10;99.90;;;;;;5024133;28;20129;-67
2023/07/06 01:00:59;;;;;;;217.75;208.52;;;11.10;99.90;;;;;;5011042;28;20048;-67
2023/07/06 01:03:25;;;;;;;209.18;200.05;;;11.10;99.90;;;;;;5023330;28;20394;-67
2023/07/06 01:05:55;;;;;;;198.20;189.40;;;11.10;99.90;;;;;;5007854;28;20502;-67
2023/07/06 01:08:23;;;;;;;202.40;193.63;;;11.10;99.90;;;;;;5036319;28;20056;-67
2023/07/06 01:10:49;;;;;;;194.07;185.60;;;11.00;99.90;;;;;;5027506;28;20041;-67
2023/07/06 01:13:15;;;;;;;190.13;181.60;;;11.00;99.90;;;;;;5002760;28;20449;-67
2023/07/06 01:16:13;;;;;;;173.05;164.63;;;11.00;99.90;;;;;;5016704;28;20060;-67
2023/07/06 01:18:58;;;;;;;169.35;161.52;;;11.00;99.90;;;;;;5023765;28;20517;-67
2023/07/06 01:21:40;;;;;;;176.32;168.23;;;11.00;99.90;;;;;;5019340;28;20107;-67
2023/07/06 01:24:24;;;;;;;174.15;166.18;;;11.00;99.90;;;;;;5022142;28;20099;-66
2023/07/06 01:26:50;;;;;;;1999.90;999.90;;;11.00;99.90;;;;;;5038081;28;20056;-67
2023/07/06 01:29:18;;;;;;;1082.00;578.22;;;11.00;99.90;;;;;;5026740;28;20049;-67
2023/07/06 01:32:11;;;;;;;1085.22;581.13;;;11.00;99.90;;;;;;5024989;28;20045;-66
2023/07/06 01:34:46;;;;;;;1999.90;999.90;;;11.00;99.90;;;;;;5028954;28;20552;-67
2023/07/06 01:37:23;;;;;;;1999.90;999.90;;;11.00;99.90;;;;;;5010150;28;20041;-67
2023/07/06 01:39:49;;;;;;;1999.90;999.90;;;11.00;99.90;;;;;;5025530;28;20446;-67
2023/07/06 01:42:26;;;;;;;1537.25;785.45;;;11.00;99.90;;;;;;5008652;28;20498;-67
2023/07/06 01:44:56;;;;;;;1543.72;791.72;;;11.10;99.90;;;;;;5010326;28;20049;-67
2023/07/06 01:47:24;;;;;;;1999.90;999.90;;;11.10;99.90;;;;;;5031892;28;20042;-67
2023/07/06 01:49:51;;;;;;;158.15;150.55;;;11.10;99.90;;;;;;5026106;28;20100;-67
2023/07/06 01:52:28;;;;;;;152.00;144.70;;;11.10;99.90;;;;;;5009520;28;20466;-67
2023/07/06 01:55:08;;;;;;;1079.80;576.05;;;11.20;99.90;;;;;;5040408;28;20052;-67
2023/07/06 01:57:49;;;;;;;1539.90;787.97;;;11.20;99.90;;;;;;5025190;28;20176;-67
2023/07/06 02:00:18;;;;;;;1999.90;999.90;;;11.20;99.90;;;;;;5038710;28;20471;-66
2023/07/06 02:02:51;;;;;;;1999.90;999.90;;;11.30;99.90;;;;;;5022994;28;20041;-67
2023/07/06 02:05:19;;;;;;;1542.82;790.78;;;11.30;99.90;;;;;;5024938;28;20053;-67
2023/07/06 02:07:45;;;;;;;1543.90;791.75;;;11.40;99.90;;;;;;5028471;28;20486;-67
2023/07/06 02:10:16;;;;;;;176.48;168.35;;;11.40;99.90;;;;;;5026175;28;20052;-67
2023/07/06 02:12:47;;;;;;;177.50;169.35;;;11.50;99.90;;;;;;5021207;28;20045;-67
2023/07/06 02:15:16;;;;;;;1548.07;795.85;;;11.50;99.90;;;;;;5037067;28;20497;-67
2023/07/06 02:17:43;;;;;;;1095.00;590.67;;;11.50;99.90;;;;;;5024858;28;20508;-67
2023/07/06 02:20:10;;;;;;;1546.15;794.00;;;11.60;99.90;;;;;;5025133;28;20037;-67
2023/07/06 02:22:36;;;;;;;186.48;177.82;;;11.60;99.90;;;;;;5026419;28;20073;-67
2023/07/06 02:25:01;;;;;;;185.90;177.18;;;11.60;99.90;;;;;;5009732;28;20536;-67
2023/07/06 02:27:27;;;;;;;1095.93;591.30;;;11.60;99.90;;;;;;5021656;28;20140;-67
2023/07/06 02:29:53;;;;;;;183.77;175.15;;;11.70;99.90;;;;;;5034812;28;20549;-67
2023/07/06 02:32:18;;;;;;;1100.85;596.10;;;11.70;99.90;;;;;;5026960;28;20440;-66
2023/07/06 02:34:45;;;;;;;192.43;183.43;;;11.70;99.90;;;;;;5002537;28;20069;-67
2023/07/06 02:37:11;;;;;;;194.43;185.23;;;11.80;99.90;;;;;;5025928;28;20041;-67
2023/07/06 02:39:36;;;;;;;214.98;204.57;;;11.70;99.90;;;;;;5022972;28;20045;-67
2023/07/06 02:42:03;;;;;;;219.60;209.30;;;11.70;99.90;;;;;;5025057;28;20069;-67
2023/07/06 02:44:28;;;;;;;237.82;227.02;;;11.70;99.90;;;;;;5024533;28;20196;-67
2023/07/06 02:46:54;;;;;;;225.73;215.63;;;11.60;99.90;;;;;;5026144;28;20053;-67
2023/07/06 02:49:20;;;;;;;222.27;212.18;;;11.60;99.90;;;;;;5001188;28;20099;-67
2023/07/06 02:51:46;;;;;;;235.18;224.13;;;11.60;99.90;;;;;;5001012;28;20140;-67
2023/07/06 02:54:15;;;;;;;248.45;237.20;;;11.50;99.90;;;;;;5025910;28;20557;-67
2023/07/06 02:56:43;;;;;;;243.32;232.27;;;11.50;99.90;;;;;;5005036;28;20050;-67
2023/07/06 02:59:10;;;;;;;249.57;238.35;;;11.50;99.90;;;;;;5026016;28;20572;-67
2023/07/06 03:01:36;;;;;;;205.02;195.40;;;11.40;99.90;;;;;;5025696;28;20041;-67
2023/07/06 03:04:09;;;;;;;220.10;210.13;;;11.40;99.90;;;;;;5020936;28;20136;-66
2023/07/06 03:06:37;;;;;;;248.75;237.43;;;11.40;99.90;;;;;;5010298;28;20051;-67
2023/07/06 03:09:03;;;;;;;219.05;209.05;;;11.40;99.90;;;;;;5017792;28;20049;-67
2023/07/06 03:11:33;;;;;;;226.60;216.13;;;11.40;99.90;;;;;;5025243;28;20045;-67
2023/07/06 03:14:00;;;;;;;216.93;206.88;;;11.40;99.90;;;;;;5025403;28;20551;-67
2023/07/06 03:16:26;;;;;;;225.60;215.30;;;11.30;99.90;;;;;;5021197;28;20099;-67
2023/07/06 03:18:52;;;;;;;209.35;199.77;;;11.30;99.90;;;;;;5025779;28;20136;-67
2023/07/06 03:21:20;;;;;;;201.10;192.02;;;11.30;99.90;;;;;;5010115;28;20120;-66
2023/07/06 03:23:47;;;;;;;202.77;193.40;;;11.30;99.90;;;;;;5008651;28;20494;-67
2023/07/06 03:26:14;;;;;;;202.63;193.32;;;11.40;99.90;;;;;;5034597;28;20047;-67
2023/07/06 03:28:40;;;;;;;1999.90;999.90;;;11.40;99.90;;;;;;5025209;28;20053;-67
2023/07/06 03:31:07;;;;;;;198.68;189.38;;;11.40;99.90;;;;;;5026177;28;20045;-66
2023/07/06 03:33:32;;;;;;;1999.90;999.90;;;11.40;99.90;;;;;;5019254;28;20030;-67
2023/07/06 03:35:58;;;;;;;1113.63;608.55;;;11.40;99.90;;;;;;5022514;28;20038;-66
2023/07/06 03:38:29;;;;;;;1100.30;595.78;;;11.50;99.90;;;;;;5037749;28;20052;-67
2023/07/06 03:40:56;;;;;;;198.30;189.45;;;11.50;99.90;;;;;;5004926;28;20042;-67
2023/07/06 03:43:21;;;;;;;222.63;212.50;;;11.50;99.90;;;;;;5022494;28;20053;-67
2023/07/06 03:45:48;;;;;;;233.57;222.95;;;11.50;99.90;;;;;;5025241;28;20065;-67
2023/07/06 03:48:15;;;;;;;220.55;210.48;;;11.50;99.90;;;;;;5022071;28;20038;-67
2023/07/06 03:50:41;;;;;;;230.00;219.77;;;11.60;99.90;;;;;;5024593;28;20037;-67
2023/07/06 03:53:07;;;;;;;215.07;205.13;;;11.60;99.90;;;;;;5022010;28;20151;-67
2023/07/06 03:55:33;;;;;;;210.93;201.20;;;11.60;99.90;;;;;;5025038;28;20149;-67
2023/07/06 03:58:00;;;;;;;221.40;211.27;;;11.70;99.90;;;;;;5025096;28;20469;-67
2023/07/06 04:00:28;;;;;;;668.15;410.65;;;11.80;99.90;;;;;;5024444;28;20398;-67
2023/07/06 04:02:56;;;;;;;225.65;215.48;;;11.80;99.90;;;;;;5023072;28;20331;-67
2023/07/06 04:05:25;;;;;;;694.95;436.20;;;11.90;99.90;;;;;;5019410;28;20041;-67
2023/07/06 04:07:54;;;;;;;252.30;241.02;;;12.00;99.90;;;;;;5016213;28;20048;-67
2023/07/06 04:10:20;;;;;;;264.20;252.60;;;12.00;99.90;;;;;;5026708;28;20489;-67
2023/07/06 04:12:48;;;;;;;258.45;246.90;;;12.10;99.90;;;;;;5008491;28;20052;-67
2023/07/06 04:15:15;;;;;;;255.70;244.50;;;12.20;99.90;;;;;;5014659;28;20053;-67
2023/07/06 04:17:41;;;;;;;268.58;256.52;;;12.20;99.90;;;;;;5040558;28;20172;-67
2023/07/06 04:20:34;;;;;;;264.40;252.35;;;12.30;99.90;;;;;;5031108;28;20049;-67
2023/07/06 04:22:59;;;;;;;276.55;263.70;;;12.30;99.90;;;;;;5024395;28;20087;-67
2023/07/06 04:25:29;;;;;;;281.35;269.05;;;12.40;99.90;;;;;;5028986;28;20122;-67
2023/07/06 04:27:56;;;;;;;286.30;273.48;;;12.40;99.90;;;;;;5025228;28;20045;-67
2023/07/06 04:30:22;;;;;;;313.15;298.90;;;12.40;99.90;;;;;;5045874;28;20539;-67
2023/07/06 04:32:49;;;;;;;318.52;304.10;;;12.50;99.90;;;;;;5022106;28;20049;-67
2023/07/06 04:35:17;;;;;;;326.95;311.60;;;12.50;99.90;;;;;;5028962;28;20045;-67
2023/07/06 04:37:48;;;;;;;303.20;289.75;;;12.50;99.90;;;;;;5028051;28;21876;-67
2023/07/06 04:40:18;;;;;;;320.08;305.55;;;12.60;99.90;;;;;;5028101;28;20478;-67
2023/07/06 04:42:48;;;;;;;318.88;304.27;;;12.60;99.90;;;;;;5024406;28;20064;-67
2023/07/06 04:45:16;;;;;;;327.83;312.95;;;12.60;99.90;;;;;;5024099;28;20095;-67
2023/07/06 04:47:44;;;;;;;316.00;301.23;;;12.60;99.90;;;;;;5020267;28;20425;-67
2023/07/06 04:50:11;;;;;;;319.80;305.33;;;12.70;99.90;;;;;;5026714;28;20487;-67
2023/07/06 04:52:38;;;;;;;316.63;302.15;;;12.70;99.90;;;;;;5023223;28;20183;-67
2023/07/06 04:55:05;;;;;;;321.67;306.95;;;12.80;99.90;;;;;;5024197;28;20559;-67
2023/07/06 04:57:31;;;;;;;329.83;314.50;;;12.90;99.90;;;;;;5028255;28;20164;-67
2023/07/06 04:59:57;;;;;;;326.80;311.80;;;13.00;99.90;;;;;;5024620;28;20688;-67
2023/07/06 05:02:23;;;;;;;305.90;292.02;;;13.00;99.90;;;;;;5028798;28;20046;-67
2023/07/06 05:04:49;;;;;;;311.58;297.67;;;13.00;99.90;;;;;;5022074;28;20135;-67
2023/07/06 05:07:15;;;;;;;303.55;289.65;;;13.00;99.90;;;;;;5007786;28;20041;-67
2023/07/06 05:09:42;;;;;;;306.77;292.67;;;13.00;99.90;;;;;;5023391;28;20052;-67
2023/07/06 05:12:10;;;;;;;307.17;293.55;;;13.00;99.90;;;;;;5027926;28;20053;-67
2023/07/06 05:14:35;;;;;;;311.20;297.35;;;13.10;99.90;;;;;;5029638;28;20048;-67
2023/07/06 05:17:02;;;;;;;305.80;292.00;;;13.10;99.90;;;;;;5022885;28;20045;-67
2023/07/06 05:19:28;;;;;;;315.20;300.73;;;13.20;99.90;;;;;;5024125;28;20481;-67
2023/07/06 05:21:57;;;;;;;309.02;294.98;;;13.30;99.90;;;;;;5025428;28;20037;-67
2023/07/06 05:24:26;;;;;;;304.73;290.85;;;13.40;99.90;;;;;;5025674;28;20037;-67
2023/07/06 05:26:52;;;;;;;303.80;289.92;;;13.50;99.90;;;;;;5025443;28;20041;-67
2023/07/06 05:29:18;;;;;;;293.08;279.85;;;13.60;99.90;;;;;;5023117;28;20123;-67
2023/07/06 05:31:45;;;;;;;292.85;279.60;;;13.60;99.90;;;;;;5027360;28;20492;-67
2023/07/06 05:34:11;;;;;;;284.25;271.73;;;13.70;99.90;;;;;;5015757;28;20041;-67
2023/07/06 05:36:37;;;;;;;289.70;276.95;;;13.80;99.90;;;;;;5006158;28;20108;-67
2023/07/06 05:39:06;;;;;;;281.60;268.58;;;13.90;99.90;;;;;;5027368;28;20041;-67
2023/07/06 05:41:32;;;;;;;281.75;269.10;;;14.00;99.90;;;;;;5007499;28;20468;-67
2023/07/06 05:43:58;;;;;;;287.80;274.67;;;14.20;99.90;;;;;;5025339;28;20465;-67
2023/07/06 05:46:24;;;;;;;274.20;261.63;;;14.30;99.90;;;;;;5041605;28;20033;-67
2023/07/06 05:48:51;;;;;;;276.55;263.75;;;14.50;99.90;;;;;;5022955;28;20053;-67
2023/07/06 05:51:17;;;;;;;259.63;247.77;;;14.60;99.90;;;;;;5023510;28;20052;-68
2023/07/06 05:53:43;;;;;;;193.52;183.82;;;14.80;99.90;;;;;;5027506;28;20037;-67
2023/07/06 05:56:09;;;;;;;177.20;169.18;;;14.80;99.90;;;;;;5026491;28;20061;-67
2023/07/06 05:58:36;;;;;;;158.57;151.00;;;15.00;99.90;;;;;;5007234;28;20057;-67
2023/07/06 06:01:02;;;;;;;217.18;207.13;;;15.00;99.90;;;;;;5027930;28;20379;-67
2023/07/06 06:03:29;;;;;;;124.13;117.72;;;15.10;99.90;;;;;;5022423;28;20045;-67
2023/07/06 06:05:55;;;;;;;110.00;104.60;;;15.30;99.90;;;;;;5027606;28;20064;-67
2023/07/06 06:08:20;;;;;;;73.63;68.97;;;15.30;99.90;;;;;;5025804;28;20052;-67
2023/07/06 06:10:50;;;;;;;142.10;135.07;;;15.50;99.90;;;;;;5038835;28;20592;-68
2023/07/06 06:13:16;;;;;;;71.03;67.10;;;15.60;99.90;;;;;;5027119;28;20049;-67
2023/07/06 06:15:42;;;;;;;81.50;76.65;;;15.80;99.90;;;;;;5026300;28;20041;-67
2023/07/06 06:18:09;;;;;;;110.72;104.78;;;15.90;99.90;;;;;;5024132;28;20045;-67
2023/07/06 06:20:37;;;;;;;62.28;58.65;;;16.10;99.90;;;;;;5022881;28;20532;-67
2023/07/06 06:23:04;;;;;;;93.22;88.28;;;16.20;99.90;;;;;;5004205;28;20394;-67
2023/07/06 06:25:30;;;;;;;95.82;90.75;;;16.40;99.90;;;;;;5021555;28;20050;-68
2023/07/06 06:27:56;;;;;;;287.65;274.30;;;16.70;99.90;;;;;;5029694;28;20092;-67
2023/07/06 06:30:22;;;;;;;329.20;313.80;;;17.10;99.90;;;;;;5026133;28;20085;-68
2023/07/06 06:32:48;;;;;;;351.52;334.67;;;18.00;99.90;;;;;;5022979;28;20033;-67
2023/07/06 06:35:28;;;;;;;444.23;421.95;;;18.90;99.90;;;;;;5028140;28;20045;-68
2023/07/06 06:37:57;;;;;;;327.90;312.52;;;19.70;99.90;;;;;;5019265;28;20034;-68
2023/07/06 06:40:24;;;;;;;446.85;424.05;;;20.50;99.90;;;;;;4998434;28;20042;-68
2023/07/06 06:42:51;;;;;;;275.00;262.13;;;21.20;99.90;;;;;;5025288;28;20072;-68
2023/07/06 06:45:18;;;;;;;234.30;222.88;;;21.70;99.90;;;;;;5009513;28;20045;-68
2023/07/06 06:47:44;;;;;;;130.60;124.15;;;22.30;99.90;;;;;;5002223;28;20132;-68
2023/07/06 06:50:13;;;;;;;106.15;100.93;;;22.50;99.90;;;;;;5022831;28;20356;-68
2023/07/06 06:52:40;;;;;;;83.88;79.47;;;22.60;99.90;;;;;;5021311;28;20057;-68
2023/07/06 06:55:07;;;;;;;117.70;111.55;;;23.20;99.90;;;;;;5029456;28;20060;-68
2023/07/06 06:57:34;;;;;;;165.00;156.95;;;23.40;99.90;;;;;;5031803;28;20401;-68
2023/07/06 06:59:59;;;;;;;86.78;82.25;;;23.70;99.90;;;;;;5019224;28;20048;-68
2023/07/06 07:02:26;;;;;;;61.72;58.30;;;24.20;99.90;;;;;;5023647;28;20033;-69
2023/07/06 07:04:52;;;;;;;53.70;50.35;;;24.40;99.90;;;;;;5013746;28;20079;-68
2023/07/06 07:07:18;;;;;;;50.72;47.85;;;24.20;99.90;;;;;;5030694;28;20050;-68
2023/07/06 07:09:45;;;;;;;54.47;51.10;;;23.90;99.90;;;;;;5021440;28;20047;-69
2023/07/06 07:12:11;;;;;;;86.60;82.03;;;23.80;99.90;;;;;;5037786;28;20048;-69
2023/07/06 07:14:38;;;;;;;67.88;64.25;;;23.70;99.90;;;;;;5043357;28;20053;-68
2023/07/06 07:17:07;;;;;;;127.45;121.50;;;23.70;99.90;;;;;;5040973;28;20045;-68
2023/07/06 07:19:34;;;;;;;50.03;46.90;;;23.90;99.90;;;;;;5016548;28;20509;-68
2023/07/06 07:22:00;;;;;;;156.40;149.18;;;23.90;99.90;;;;;;5036134;28;20056;-68
2023/07/06 07:24:29;;;;;;;48.17;45.42;;;24.20;99.90;;;;;;5003662;28;20622;-68
2023/07/06 07:26:57;;;;;;;113.80;108.22;;;24.50;99.90;;;;;;5036221;28;20049;-69
2023/07/06 07:29:23;;;;;;;135.50;129.30;;;24.80;99.90;;;;;;5018222;28;20111;-69
2023/07/06 07:31:49;;;;;;;176.88;168.95;;;24.90;99.90;;;;;;5016957;28;20049;-68
2023/07/06 07:34:18;;;;;;;212.98;203.48;;;24.90;99.90;;;;;;5009011;28;20053;-69
2023/07/06 07:36:45;;;;;;;415.83;394.77;;;24.90;99.90;;;;;;5021464;28;20041;-69
2023/07/06 07:39:11;;;;;;;299.80;285.88;;;24.90;99.90;;;;;;5027226;28;20037;-68
2023/07/06 07:41:37;;;;;;;332.75;316.27;;;24.90;99.90;;;;;;5009367;28;20043;-69
2023/07/06 07:44:03;;;;;;;325.83;310.58;;;25.00;99.90;;;;;;5024488;28;20085;-69
2023/07/06 07:46:29;;;;;;;363.27;345.92;;;25.00;99.40;;;;;;5039350;28;20505;-68
2023/07/06 07:48:56;;;;;;;292.33;279.10;;;24.90;99.90;;;;;;5019364;28;20081;-69
2023/07/06 07:51:25;;;;;;;297.13;283.30;;;25.10;99.90;;;;;;5025950;28;20073;-69
2023/07/06 07:53:52;;;;;;;284.85;271.77;;;25.20;97.80;;;;;;5020881;28;20030;-69
2023/07/06 07:56:19;;;;;;;164.90;157.52;;;25.10;98.90;;;;;;5005924;28;20048;-68
2023/07/06 07:58:47;;;;;;;359.30;342.38;;;25.10;99.90;;;;;;5027125;28;20404;-69
2023/07/06 08:01:18;;;;;;;350.35;333.50;;;24.50;99.90;;;;;;5012878;28;20048;-69
2023/07/06 08:03:44;;;;;;;362.98;345.73;;;23.60;99.90;;;;;;5026185;28;20049;-68
2023/07/06 08:06:14;;;;;;;360.20;342.85;;;23.20;99.90;;;;;;5029325;28;20489;-68
2023/07/06 08:08:41;;;;;;;411.77;391.52;;;23.80;99.90;;;;;;5029196;28;20787;-69
2023/07/06 08:11:21;;;;;;;354.30;337.70;;;23.70;99.70;;;;;;5029545;28;20057;-67
2023/07/06 08:13:50;;;;;;;384.02;365.20;;;23.80;98.70;;;;;;5024643;28;20528;-68
2023/07/06 08:16:17;;;;;;;488.02;462.75;;;23.90;99.90;;;;;;5029604;28;20140;-68
2023/07/06 08:18:43;;;;;;;396.13;376.98;;;23.60;98.00;;;;;;5029080;28;20068;-68
2023/07/06 08:21:10;;;;;;;389.55;370.38;;;23.30;99.90;;;;;;5020793;28;20560;-68
2023/07/06 08:23:40;;;;;;;378.00;359.80;;;22.70;99.00;;;;;;5011280;28;20049;-67
2023/07/06 08:26:06;;;;;;;322.55;307.70;;;22.00;99.60;;;;;;5035043;28;20067;-68
2023/07/06 08:28:31;;;;;;;315.65;300.95;;;21.40;99.40;;;;;;5026220;28;20196;-68
2023/07/06 08:31:03;;;;;;;236.85;226.57;;;20.90;99.90;;;;;;5025687;28;20045;-68
2023/07/06 08:33:32;;;;;;;148.25;141.48;;;20.50;99.90;;;;;;5029142;28;20045;-67
2023/07/06 08:35:58;;;;;;;125.97;120.38;;;20.90;99.90;;;;;;5002772;28;20046;-68
2023/07/06 08:38:24;;;;;;;233.05;222.57;;;21.60;99.90;;;;;;5007920;28;20034;-68
2023/07/06 08:40:52;;;;;;;124.40;119.03;;;21.80;99.90;;;;;;5019525;28;20068;-68
2023/07/06 08:43:22;;;;;;;166.73;159.35;;;21.60;99.90;;;;;;5026178;28;20529;-67
2023/07/06 08:45:52;;;;;;;279.30;266.85;;;21.80;99.90;;;;;;5007250;28;20045;-68
2023/07/06 08:48:25;;;;;;;306.48;292.67;;;22.00;99.90;;;;;;5021893;28;20045;-68
2023/07/06 08:50:58;;;;;;;311.05;296.88;;;21.90;99.90;;;;;;5022578;28;20041;-68
2023/07/06 08:53:28;;;;;;;225.25;215.23;;;21.60;99.90;;;;;;5025496;28;20103;-68
2023/07/06 08:55:57;;;;;;;328.27;313.15;;;21.30;99.90;;;;;;5011057;28;20120;-68
2023/07/06 08:58:29;;;;;;;300.02;286.70;;;21.20;99.90;;;;;;5033816;28;20042;-68
2023/07/06 09:01:02;;;;;;;290.38;277.63;;;21.20;99.90;;;;;;5044616;28;20075;-68
2023/07/06 09:03:39;;;;;;;315.13;300.67;;;21.10;99.90;;;;;;5037002;28;20081;-68
2023/07/06 09:06:06;;;;;;;254.35;242.90;;;21.40;99.90;;;;;;5027066;28;20057;-68
2023/07/06 09:08:32;;;;;;;290.45;277.30;;;21.90;99.90;;;;;;5037882;28;20081;-67
2023/07/06 09:10:58;;;;;;;293.77;280.63;;;22.30;99.90;;;;;;5030673;28;20057;-67
2023/07/06 09:13:26;;;;;;;311.40;297.33;;;22.40;99.90;;;;;;5027482;28;20052;-68
2023/07/06 09:15:56;;;;;;;354.30;337.63;;;22.30;98.80;;;;;;5026299;28;20398;-68
2023/07/06 09:18:23;;;;;;;355.17;338.33;;;22.30;98.30;;;;;;5026094;28;20041;-67
2023/07/06 09:20:50;;;;;;;342.30;325.85;;;22.40;98.60;;;;;;5025516;28;20042;-69
2023/07/06 09:23:17;;;;;;;392.50;373.27;;;22.90;97.40;;;;;;5025114;28;20528;-68
2023/07/06 09:25:45;;;;;;;343.25;327.40;;;23.20;98.30;;;;;;5044126;28;20395;-68
2023/07/06 09:28:23;;;;;;;450.88;428.27;;;23.30;98.40;;;;;;5026486;28;20433;-68
2023/07/06 09:30:50;;;;;;;259.38;247.10;;;23.20;98.00;;;;;;5021390;28;20038;-67
2023/07/06 09:33:24;;;;;;;447.63;424.80;;;23.10;97.20;;;;;;5024666;28;20053;-67
2023/07/06 09:35:57;;;;;;;436.98;414.70;;;22.90;97.10;;;;;;5023334;28;20041;-68
2023/07/06 09:38:24;;;;;;;414.63;394.15;;;22.60;97.60;;;;;;5010883;28;20500;-67
2023/07/06 09:40:50;;;;;;;428.17;406.73;;;22.30;98.70;;;;;;5024003;28;20130;-67
2023/07/06 09:43:21;;;;;;;417.60;397.00;;;22.20;98.70;;;;;;5028046;28;20441;-67
2023/07/06 09:45:49;;;;;;;354.77;337.88;;;22.30;98.50;;;;;;5026997;28;20188;-67
2023/07/06 09:48:24;;;;;;;329.23;314.02;;;22.10;98.30;;;;;;5019402;28;20041;-67
2023/07/06 09:50:54;;;;;;;302.00;288.35;;;21.80;99.00;;;;;;5011721;28;20549;-67
2023/07/06 09:53:26;;;;;;;329.10;314.17;;;21.50;99.90;;;;;;5019868;28;20045;-70
2023/07/06 09:55:54;;;;;;;300.50;287.13;;;21.50;99.50;;;;;;5026187;28;20041;-68
2023/07/06 09:58:25;;;;;;;324.88;310.10;;;21.40;99.80;;;;;;5027094;28;20045;-67
2023/07/06 10:01:10;;;;;;;312.90;298.60;;;21.20;98.90;;;;;;5017181;28;20093;-67
2023/07/06 10:04:01;;;;;;;246.18;235.55;;;21.00;99.90;;;;;;5027332;28;20041;-67
2023/07/06 10:06:44;;;;;;;317.92;303.38;;;20.70;99.90;;;;;;5009142;28;20401;-67
2023/07/06 10:09:28;;;;;;;158.75;151.82;;;20.60;99.90;;;;;;5042885;28;20124;-67
2023/07/06 10:11:57;;;;;;;361.63;344.10;;;20.90;99.90;;;;;;5007801;28;20049;-67
2023/07/06 10:14:33;;;;;;;197.90;189.30;;;21.20;99.90;;;;;;5027683;28;20037;-67
2023/07/06 10:17:18;;;;;;;309.83;295.60;;;21.50;99.90;;;;;;5027214;28;20046;-68
2023/07/06 10:20:00;;;;;;;280.60;267.75;;;21.40;99.30;;;;;;5036910;28;20076;-68
2023/07/06 10:22:45;;;;;;;251.95;240.60;;;21.40;99.90;;;;;;5022872;28;20052;-67
2023/07/06 10:25:18;;;;;;;187.38;179.02;;;21.80;99.90;;;;;;5029791;28;20418;-68
2023/07/06 10:27:53;;;;;;;324.45;309.58;;;22.30;99.90;;;;;;5025398;28;20045;-68
2023/07/06 10:30:45;;;;;;;314.35;299.77;;;22.80;99.50;;;;;;5027598;28;20039;-68
2023/07/06 10:33:38;;;;;;;333.27;317.60;;;23.10;99.60;;;;;;5016266;28;20049;-67
2023/07/06 10:36:10;;;;;;;314.70;300.38;;;23.50;99.90;;;;;;5020257;28;20045;-68
2023/07/06 10:38:35;;;;;;;307.67;293.10;;;23.80;98.70;;;;;;5020613;28;20477;-67
2023/07/06 10:41:11;;;;;;;262.77;250.50;;;23.90;97.30;;;;;;5003542;28;20045;-67
2023/07/06 10:43:40;;;;;;;103.82;99.43;;;23.90;94.80;;;;;;5021705;28;20057;-68
2023/07/06 10:46:30;;;;;;;177.15;169.50;;;23.60;91.60;;;;;;5033928;28;20057;-68
2023/07/06 10:48:57;;;;;;;167.77;160.38;;;23.10;92.60;;;;;;5025304;28;20052;-67
2023/07/06 10:51:26;;;;;;;101.05;96.72;;;22.90;92.30;;;;;;5019681;28;20398;-67
2023/07/06 10:54:16;;;;;;;148.88;142.60;;;22.90;92.80;;;;;;5037635;28;20483;-68
2023/07/06 10:56:47;;;;;;;169.00;160.93;;;23.10;92.20;;;;;;5023926;28;20568;-68
2023/07/06 10:59:16;;;;;;;368.50;351.00;;;23.20;91.60;;;;;;5007158;28;20397;-68
2023/07/06 11:01:46;;;;;;;337.05;320.90;;;23.20;93.10;;;;;;5040208;28;20042;-67
2023/07/06 11:04:40;;;;;;;334.73;319.17;;;23.10;95.40;;;;;;5022082;28;20073;-67
2023/07/06 11:07:12;;;;;;;266.23;254.27;;;23.00;94.60;;;;;;5023735;28;20470;-67
2023/07/06 11:10:12;;;;;;;24.58;23.23;;;22.80;95.00;;;;;;5026003;28;20045;-69
2023/07/06 11:12:58;;;;;;;49.00;46.70;;;22.50;91.70;;;;;;5025532;28;20069;-67
2023/07/06 11:15:35;;;;;;;277.95;265.75;;;22.10;92.10;;;;;;5021652;28;20371;-68
2023/07/06 11:18:26;;;;;;;372.13;354.50;;;21.60;92.60;;;;;;5024212;28;20057;-68
2023/07/06 11:20:57;;;;;;;348.80;332.65;;;21.30;93.90;;;;;;5025572;28;20037;-67
2023/07/06 11:24:02;;;;;;;293.52;280.50;;;20.90;95.20;;;;;;5032781;28;20087;-67
2023/07/06 11:26:50;;;;;;;308.30;294.30;;;20.70;96.60;;;;;;4988725;28;20048;-68
2023/07/06 11:29:20;;;;;;;248.20;237.20;;;20.40;98.00;;;;;;5004548;28;20405;-68
2023/07/06 11:32:01;;;;;;;235.10;224.85;;;20.30;98.70;;;;;;5005097;28;20049;-67
2023/07/06 11:34:38;;;;;;;234.10;224.00;;;20.30;99.10;;;;;;5008913;28;20038;-67
2023/07/06 11:37:15;;;;;;;349.58;333.45;;;20.30;99.90;;;;;;4995414;28;20053;-67
2023/07/06 11:40:07;;;;;;;274.00;261.83;;;20.40;99.90;;;;;;4994247;28;20041;-68
2023/07/06 11:43:09;;;;;;;208.50;199.65;;;20.60;99.90;;;;;;4995377;28;20049;-68
2023/07/06 11:45:59;;;;;;;156.32;149.48;;;20.80;99.90;;;;;;4993100;28;20080;-67
2023/07/06 11:48:45;;;;;;;132.52;126.65;;;21.10;99.90;;;;;;4993658;28;20129;-67
2023/07/06 11:51:11;;;;;;;257.92;246.45;;;21.20;99.90;;;;;;4995561;28;20465;-67
2023/07/06 11:53:53;;;;;;;151.45;144.82;;;21.20;99.90;;;;;;4994736;28;20041;-67
2023/07/06 11:56:50;;;;;;;250.63;239.63;;;21.20;99.90;;;;;;4994956;28;20140;-67
2023/07/06 11:59:38;;;;;;;216.20;206.52;;;21.20;99.90;;;;;;4983535;28;20064;-68
2023/07/06 12:02:27;;;;;;;214.50;205.15;;;21.10;99.90;;;;;;4996030;28;20079;-67
2023/07/06 12:04:52;;;;;;;346.88;330.77;;;21.00;99.90;;;;;;5029691;28;20482;-67
2023/07/06 12:07:29;;;;;;;269.00;257.15;;;20.90;99.90;;;;;;5043488;28;20100;-67
2023/07/06 12:09:54;;;;;;;319.23;304.88;;;20.90;99.90;;;;;;5031472;28;20052;-67
2023/07/06 12:12:23;;;;;;;261.60;250.20;;;20.80;99.90;;;;;;5048813;28;20045;-67
2023/07/06 12:14:55;;;;;;;293.88;280.73;;;20.90;99.90;;;;;;5018780;28;20520;-67
2023/07/06 12:17:22;;;;;;;225.23;215.50;;;21.10;99.80;;;;;;5047923;28;20045;-67
2023/07/06 12:19:56;;;;;;;286.90;274.13;;;21.50;97.40;;;;;;5040425;28;20057;-67
2023/07/06 12:22:23;;;;;;;309.52;295.42;;;22.10;98.10;;;;;;5047538;28;20084;-67
2023/07/06 12:24:52;;;;;;;187.48;179.13;;;22.90;97.30;;;;;;5027669;28;20378;-67